Time;durP1;ratioP1;P1;durP2;ratioP2;P2;SDS_P1;SDS_P2;PMS_P1;PMS_P2;Temp;Humidity;BMP_temperature;BMP_pressure;BME280_temperature;BME280_humidity;BME280_pressure;Samples;Min_cycle;Max_cycle;Signal;HPM_P1;HPM_P2
2023/11/29 00:01:19;;;;;;;;;;;;;;;-7.99;63.02;94442.72;5046495;28;20536;-66
2023/11/29 00:03:44;;;;;;;;;;;;;;;-6.86;61.08;94428.06;5050606;28;19987;-65
2023/11/29 00:06:09;;;;;;;;;;;;;;;-6.31;59.73;94426.19;5038402;28;19947;-65
2023/11/29 00:08:34;;;;;;;;;;;;;;;-5.65;57.13;94430.38;5040461;28;19939;-65
2023/11/29 00:11:00;;;;;;;;;;;;;;;-5.73;57.28;94428.31;5038214;28;20298;-65
2023/11/29 00:13:25;;;;;;;;;;;;;;;-5.74;61.99;94424.06;5040599;28;19945;-65
2023/11/29 00:15:51;;;;;;;;;;;;;;;-5.51;60.48;94423.38;5044221;28;20518;-66
2023/11/29 00:18:16;;;;;;;;;;;;;;;-5.42;63.16;94409.78;5044753;28;19947;-65
2023/11/29 00:20:41;;;;;;;;;;;;;;;-5.49;59.24;94408.53;5044815;28;19920;-66
2023/11/29 00:23:06;;;;;;;;;;;;;;;-5.55;58.26;94415.00;5037684;28;19964;-67
2023/11/29 00:25:32;;;;;;;;;;;;;;;-5.73;59.46;94411.91;5044086;28;20089;-66
2023/11/29 00:27:57;;;;;;;;;;;;;;;-5.53;56.32;94404.50;5042204;28;19961;-65
2023/11/29 00:30:22;;;;;;;;;;;;;;;-6.55;57.18;94400.16;5042939;28;20190;-66
2023/11/29 00:32:47;;;;;;;;;;;;;;;-5.81;56.91;94390.88;5037797;28;20224;-65
2023/11/29 00:35:13;;;;;;;;;;;;;;;-6.09;60.24;94392.81;5042222;28;19963;-66
2023/11/29 00:37:38;;;;;;;;;;;;;;;-6.19;64.59;94388.22;5038411;28;19943;-66
2023/11/29 00:40:03;;;;;;;;;;;;;;;-6.23;56.64;94394.56;5040585;28;20450;-66
2023/11/29 00:42:29;;;;;;;;;;;;;;;-6.81;60.41;94387.16;5037972;28;19954;-67
2023/11/29 00:44:54;;;;;;;;;;;;;;;-6.82;59.24;94395.88;5046677;28;20402;-66
2023/11/29 00:47:19;;;;;;;;;;;;;;;-6.11;59.25;94395.50;5050048;28;19951;-65
2023/11/29 00:49:45;;;;;;;;;;;;;;;-6.26;57.26;94394.75;5039636;28;19937;-66
2023/11/29 00:52:10;;;;;;;;;;;;;;;-9.29;68.57;94396.84;5042532;28;20002;-65
2023/11/29 00:54:35;;;;;;;;;;;;;;;-8.01;67.89;94395.50;5043675;28;20423;-66
2023/11/29 00:57:01;;;;;;;;;;;;;;;-7.45;63.63;94394.63;5043426;28;20016;-66
2023/11/29 00:59:26;;;;;;;;;;;;;;;-7.06;61.45;94378.44;5042852;28;20052;-67
2023/11/29 01:01:51;;;;;;;;;;;;;;;-7.43;67.86;94381.63;5046601;28;19948;-66
2023/11/29 01:04:16;;;;;;;;;;;;;;;-7.21;61.69;94383.66;5052625;28;20029;-65
2023/11/29 01:06:42;;;;;;;;;;;;;;;-6.57;63.97;94371.75;5040252;28;19921;-65
2023/11/29 01:09:07;;;;;;;;;;;;;;;-6.21;60.57;94376.31;5040291;28;19973;-66
2023/11/29 01:11:33;;;;;;;;;;;;;;;-5.99;62.88;94376.50;5041035;28;20517;-65
2023/11/29 01:13:58;;;;;;;;;;;;;;;-7.56;64.48;94376.38;5041758;28;19935;-65
2023/11/29 01:16:23;;;;;;;;;;;;;;;-7.33;70.50;94371.50;5042411;28;19960;-65
2023/11/29 01:18:48;;;;;;;;;;;;;;;-6.03;60.87;94363.84;5037846;28;19960;-65
2023/11/29 01:21:14;;;;;;;;;;;;;;;-6.14;59.86;94365.44;5039727;28;20750;-66
2023/11/29 01:23:39;;;;;;;;;;;;;;;-7.16;65.29;94355.75;5043579;28;19970;-66
2023/11/29 01:26:05;;;;;;;;;;;;;;;-6.52;63.12;94353.34;5039795;28;19937;-66
2023/11/29 01:28:30;;;;;;;;;;;;;;;-7.27;62.32;94340.91;5043240;28;19966;-65
2023/11/29 01:30:57;;;;;;;;;;;;;;;-7.57;60.58;94339.38;5040697;28;20583;-66
2023/11/29 01:33:22;;;;;;;;;;;;;;;-7.07;61.30;94343.13;5038524;28;19966;-65
2023/11/29 01:35:47;;;;;;;;;;;;;;;-6.81;61.60;94343.16;5041123;28;20063;-66
2023/11/29 01:38:12;;;;;;;;;;;;;;;-6.86;63.46;94333.13;5040439;28;19928;-65
2023/11/29 01:40:38;;;;;;;;;;;;;;;-6.84;64.57;94335.59;5038335;28;19937;-67
2023/11/29 01:43:03;;;;;;;;;;;;;;;-7.37;63.45;94345.03;5042907;28;20277;-66
2023/11/29 01:45:28;;;;;;;;;;;;;;;-7.09;65.88;94329.47;5047005;28;19941;-66
2023/11/29 01:47:54;;;;;;;;;;;;;;;-5.99;63.83;94329.00;5045287;28;19962;-65
2023/11/29 01:50:19;;;;;;;;;;;;;;;-6.24;58.85;94323.78;5047896;28;19924;-66
2023/11/29 01:52:45;;;;;;;;;;;;;;;-5.60;60.14;94318.53;5048555;28;19954;-66
2023/11/29 01:55:11;;;;;;;;;;;;;;;-6.18;61.09;94325.09;5050618;28;20822;-65
2023/11/29 01:57:36;;;;;;;;;;;;;;;-5.35;68.97;94320.19;5050602;28;20590;-66
2023/11/29 02:00:03;;;;;;;;;;;;;;;-6.24;60.63;94317.75;5053551;28;19959;-66
2023/11/29 02:02:28;;;;;;;;;;;;;;;-6.26;61.70;94317.88;5050155;28;19963;-66
2023/11/29 02:04:53;;;;;;;;;;;;;;;-6.06;58.67;94312.22;5044671;28;19975;-65
2023/11/29 02:07:19;;;;;;;;;;;;;;;-5.28;63.58;94309.31;5047595;28;19920;-66
2023/11/29 02:09:44;;;;;;;;;;;;;;;-4.95;67.04;94302.59;5046243;28;20011;-66
2023/11/29 02:12:09;;;;;;;;;;;;;;;-4.72;62.88;94302.66;5045003;28;20538;-66
2023/11/29 02:14:43;;;;;;;;;;;;;;;-4.82;57.18;94308.53;5052087;28;19920;-66
2023/11/29 02:17:09;;;;;;;;;;;;;;;-5.26;56.26;94304.88;5045151;28;19991;-67
2023/11/29 02:19:34;;;;;;;;;;;;;;;-5.64;56.08;94301.53;5047493;28;19967;-66
2023/11/29 02:22:00;;;;;;;;;;;;;;;-5.53;68.97;94299.00;5045372;28;19939;-66
2023/11/29 02:24:28;;;;;;;;;;;;;;;-7.14;59.30;94296.94;5047244;28;20012;-66
2023/11/29 02:26:54;;;;;;;;;;;;;;;-5.61;59.92;94283.97;5050781;28;19928;-65
2023/11/29 02:29:19;;;;;;;;;;;;;;;-5.25;61.16;94272.78;5048140;28;19961;-67
2023/11/29 02:31:44;;;;;;;;;;;;;;;-4.61;63.24;94286.25;5049322;28;20768;-66
2023/11/29 02:34:10;;;;;;;;;;;;;;;-4.85;54.06;94271.59;5041679;28;19962;-65
2023/11/29 02:36:35;;;;;;;;;;;;;;;-5.57;59.01;94275.97;5046324;28;19925;-66
2023/11/29 02:39:00;;;;;;;;;;;;;;;-7.13;59.32;94280.50;5049257;28;20013;-66
2023/11/29 02:41:26;;;;;;;;;;;;;;;-5.25;66.72;94267.59;5053108;28;20807;-65
2023/11/29 02:43:55;;;;;;;;;;;;;;;-7.16;60.18;94277.28;5050048;28;19966;-65
2023/11/29 02:46:20;;;;;;;;;;;;;;;-5.08;66.54;94262.00;5053627;28;19970;-65
2023/11/29 02:48:45;;;;;;;;;;;;;;;-4.83;63.19;94257.53;5048154;28;19939;-65
2023/11/29 02:51:11;;;;;;;;;;;;;;;-4.64;58.02;94253.53;5050469;28;19971;-67
2023/11/29 02:53:36;;;;;;;;;;;;;;;-4.79;56.10;94255.53;5051412;28;19924;-65
2023/11/29 02:56:01;;;;;;;;;;;;;;;-5.59;59.36;94258.75;5048511;28;20188;-65
2023/11/29 02:58:26;;;;;;;;;;;;;;;-7.58;64.40;94261.91;5049843;28;19963;-66
2023/11/29 03:00:52;;;;;;;;;;;;;;;-6.23;62.63;94259.81;5051969;28;20043;-66
2023/11/29 03:03:17;;;;;;;;;;;;;;;-5.75;58.90;94253.00;5050615;28;19928;-66
2023/11/29 03:05:42;;;;;;;;;;;;;;;-5.47;59.87;94240.66;5053427;28;19952;-65
2023/11/29 03:08:08;;;;;;;;;;;;;;;-5.02;59.48;94236.50;5051163;28;20285;-65
2023/11/29 03:10:34;;;;;;;;;;;;;;;-5.30;57.51;94241.16;5046593;28;19959;-65
2023/11/29 03:12:59;;;;;;;;;;;;;;;-7.47;64.72;94241.34;5049083;28;19931;-66
2023/11/29 03:15:25;;;;;;;;;;;;;;;-7.30;65.33;94242.00;5045535;28;19974;-65
2023/11/29 03:17:50;;;;;;;;;;;;;;;-7.08;62.56;94240.53;5044810;28;19936;-65
2023/11/29 03:20:15;;;;;;;;;;;;;;;-6.45;60.71;94235.44;5047166;28;20002;-66
2023/11/29 03:22:40;;;;;;;;;;;;;;;-6.01;57.97;94232.41;5048399;28;19974;-66
2023/11/29 03:25:06;;;;;;;;;;;;;;;-6.90;60.00;94228.94;5044324;28;19924;-65
2023/11/29 03:27:31;;;;;;;;;;;;;;;-5.66;57.99;94221.25;5045261;28;20033;-67
2023/11/29 03:29:56;;;;;;;;;;;;;;;-5.00;57.81;94211.25;5048569;28;20471;-65
2023/11/29 03:32:22;;;;;;;;;;;;;;;-4.99;56.69;94207.72;5045550;28;19967;-66
2023/11/29 03:34:47;;;;;;;;;;;;;;;-6.37;60.41;94209.81;5048423;28;19955;-67
2023/11/29 03:37:12;;;;;;;;;;;;;;;-6.65;61.12;94209.16;5046668;28;19940;-66
2023/11/29 03:39:37;;;;;;;;;;;;;;;-6.24;60.40;94196.81;5044661;28;20008;-65
2023/11/29 03:42:03;;;;;;;;;;;;;;;-7.16;61.89;94202.25;5039242;28;20211;-65
2023/11/29 03:44:28;;;;;;;;;;;;;;;-6.85;63.29;94207.09;5041405;28;19935;-65
2023/11/29 03:46:53;;;;;;;;;;;;;;;-5.92;60.54;94197.19;5053207;28;19978;-66
2023/11/29 03:49:18;;;;;;;;;;;;;;;-5.75;59.82;94196.81;5041230;28;20019;-64
2023/11/29 03:51:44;;;;;;;;;;;;;;;-5.66;58.93;94197.91;5043559;28;20444;-65
2023/11/29 03:54:09;;;;;;;;;;;;;;;-5.60;59.37;94194.84;5045945;28;19933;-64
2023/11/29 03:56:35;;;;;;;;;;;;;;;-5.57;58.64;94182.59;5044148;28;20540;-65
2023/11/29 03:59:00;;;;;;;;;;;;;;;-5.28;58.42;94177.00;5044826;28;19932;-65
2023/11/29 04:01:30;;;;;;;;;;;;;;;-5.66;59.45;94179.75;5047501;28;20465;-64
2023/11/29 04:03:55;;;;;;;;;;;;;;;-5.85;60.61;94173.31;5046765;28;19959;-64
2023/11/29 04:06:26;;;;;;;;;;;;;;;-5.67;58.45;94166.91;5045897;28;19959;-64
2023/11/29 04:08:52;;;;;;;;;;;;;;;-5.48;58.84;94162.00;5046366;28;20482;-65
2023/11/29 04:11:17;;;;;;;;;;;;;;;-6.03;59.30;94166.88;5042976;28;19969;-65
2023/11/29 04:13:43;;;;;;;;;;;;;;;-5.85;59.99;94165.53;5044021;28;19965;-64
2023/11/29 04:16:08;;;;;;;;;;;;;;;-5.38;58.96;94156.09;5041978;28;20047;-65
2023/11/29 04:18:33;;;;;;;;;;;;;;;-5.32;59.43;94153.06;5044669;28;19966;-64
2023/11/29 04:21:00;;;;;;;;;;;;;;;-5.83;60.91;94152.47;5044350;28;19943;-64
2023/11/29 04:23:25;;;;;;;;;;;;;;;-5.28;59.81;94161.41;5044592;28;19928;-64
2023/11/29 04:25:51;;;;;;;;;;;;;;;-5.51;60.92;94149.25;5044451;28;20287;-64
2023/11/29 04:28:17;;;;;;;;;;;;;;;-5.13;59.24;94149.06;5038906;28;19971;-65
2023/11/29 04:30:42;;;;;;;;;;;;;;;-5.07;61.06;94144.22;5044994;28;20019;-64
2023/11/29 04:33:08;;;;;;;;;;;;;;;-5.19;58.54;94145.16;5042607;28;19969;-64
2023/11/29 04:35:33;;;;;;;;;;;;;;;-5.47;59.11;94150.66;5040986;28;19921;-65
2023/11/29 04:37:58;;;;;;;;;;;;;;;-5.33;59.84;94134.06;5040595;28;19953;-64
2023/11/29 04:40:23;;;;;;;;;;;;;;;-5.69;62.74;94143.66;5050420;28;19977;-65
2023/11/29 04:42:49;;;;;;;;;;;;;;;-6.43;61.74;94155.00;5042633;28;20008;-64
2023/11/29 04:45:14;;;;;;;;;;;;;;;-5.80;62.19;94143.63;5046917;28;19983;-64
2023/11/29 04:47:39;;;;;;;;;;;;;;;-6.11;63.11;94134.56;5041597;28;20011;-65
2023/11/29 04:50:05;;;;;;;;;;;;;;;-5.82;61.64;94135.97;5038453;28;20002;-63
2023/11/29 04:52:30;;;;;;;;;;;;;;;-5.92;62.73;94138.41;5042790;28;20017;-65
2023/11/29 04:54:56;;;;;;;;;;;;;;;-5.55;61.50;94134.00;5050931;28;20183;-65
2023/11/29 04:57:21;;;;;;;;;;;;;;;-5.10;59.78;94133.22;5044467;28;20117;-64
2023/11/29 04:59:46;;;;;;;;;;;;;;;-5.56;61.47;94133.22;5044123;28;19976;-65
2023/11/29 05:02:11;;;;;;;;;;;;;;;-6.40;65.13;94129.72;5045609;28;19942;-65
2023/11/29 05:04:37;;;;;;;;;;;;;;;-6.05;64.99;94129.88;5043128;28;19941;-65
2023/11/29 05:07:02;;;;;;;;;;;;;;;-6.66;65.77;94129.81;5049431;28;20003;-65
2023/11/29 05:09:27;;;;;;;;;;;;;;;-6.67;66.70;94111.78;5042644;28;19933;-65
2023/11/29 05:11:52;;;;;;;;;;;;;;;-6.59;67.00;94111.25;5046377;28;19959;-65
2023/11/29 05:14:18;;;;;;;;;;;;;;;-7.79;69.45;94130.53;5045505;28;19941;-65
2023/11/29 05:16:43;;;;;;;;;;;;;;;-6.96;67.33;94123.28;5045385;28;20302;-65
2023/11/29 05:19:08;;;;;;;;;;;;;;;-6.42;66.42;94112.66;5048710;28;20007;-65
2023/11/29 05:21:35;;;;;;;;;;;;;;;-6.29;65.61;94117.78;5042590;28;20418;-65
2023/11/29 05:24:00;;;;;;;;;;;;;;;-5.88;64.18;94118.28;5046525;28;19973;-65
2023/11/29 05:26:26;;;;;;;;;;;;;;;-6.17;65.61;94109.09;5044653;28;19988;-65
2023/11/29 05:28:52;;;;;;;;;;;;;;;-6.02;64.56;94112.34;5045375;28;19959;-65
2023/11/29 05:31:17;;;;;;;;;;;;;;;-5.95;65.48;94115.28;5044825;28;20600;-65
2023/11/29 05:33:42;;;;;;;;;;;;;;;-5.35;62.53;94111.75;5044173;28;20017;-65
2023/11/29 05:36:08;;;;;;;;;;;;;;;-5.88;64.72;94100.13;5044038;28;20347;-65
2023/11/29 05:38:34;;;;;;;;;;;;;;;-5.51;63.05;94093.94;5045690;28;19960;-65
2023/11/29 05:41:00;;;;;;;;;;;;;;;-5.58;63.19;94098.75;5043949;28;19942;-65
2023/11/29 05:43:25;;;;;;;;;;;;;;;-5.64;62.64;94113.00;5047942;28;19974;-65
2023/11/29 05:45:50;;;;;;;;;;;;;;;-6.59;65.75;94104.31;5044796;28;20018;-65
2023/11/29 05:48:15;;;;;;;;;;;;;;;-7.09;67.43;94101.75;5042561;28;19957;-65
2023/11/29 05:50:41;;;;;;;;;;;;;;;-6.30;66.42;94101.41;5045389;28;20002;-65
2023/11/29 05:53:06;;;;;;;;;;;;;;;-5.75;64.00;94097.44;5052496;28;20539;-65
2023/11/29 05:55:34;;;;;;;;;;;;;;;-5.59;63.72;94095.38;5049577;28;19921;-65
2023/11/29 05:57:59;;;;;;;;;;;;;;;-5.24;62.44;94095.38;5045656;28;20637;-65
2023/11/29 06:00:24;;;;;;;;;;;;;;;-5.10;61.73;94091.69;5052902;28;20099;-65
2023/11/29 06:02:49;;;;;;;;;;;;;;;-5.51;61.98;94084.38;5049133;28;19955;-65
2023/11/29 06:05:15;;;;;;;;;;;;;;;-4.86;61.93;94072.59;5045724;28;19983;-65
2023/11/29 06:07:40;;;;;;;;;;;;;;;-5.04;62.76;94077.44;5047140;28;20368;-65
2023/11/29 06:10:06;;;;;;;;;;;;;;;-4.98;62.43;94087.34;5049039;28;19931;-65
2023/11/29 06:12:33;;;;;;;;;;;;;;;-4.91;61.35;94075.53;5042609;28;19941;-65
2023/11/29 06:14:58;;;;;;;;;;;;;;;-5.14;61.70;94085.94;5047080;28;19955;-64
2023/11/29 06:17:23;;;;;;;;;;;;;;;-5.77;65.15;94089.75;5047323;28;19932;-65
2023/11/29 06:19:49;;;;;;;;;;;;;;;-5.38;63.65;94073.06;5046746;28;19932;-65
2023/11/29 06:22:14;;;;;;;;;;;;;;;-4.82;61.74;94082.59;5042728;28;19955;-64
2023/11/29 06:24:40;;;;;;;;;;;;;;;-4.93;61.96;94079.22;5044665;28;19939;-65
2023/11/29 06:27:05;;;;;;;;;;;;;;;-5.59;64.16;94094.53;5042633;28;20348;-65
2023/11/29 06:29:33;;;;;;;;;;;;;;;-5.81;64.13;94083.16;5043303;28;19957;-64
2023/11/29 06:31:58;;;;;;;;;;;;;;;-5.67;64.27;94087.34;5042257;28;19963;-64
2023/11/29 06:34:23;;;;;;;;;;;;;;;-5.29;63.37;94072.38;5043604;28;19958;-65
2023/11/29 06:36:49;;;;;;;;;;;;;;;-4.94;62.61;94075.78;5045437;28;19987;-64
2023/11/29 06:39:17;;;;;;;;;;;;;;;-5.05;63.41;94073.19;5043897;28;19974;-65
2023/11/29 06:41:42;;;;;;;;;;;;;;;-5.10;63.22;94071.78;5050365;28;19929;-64
2023/11/29 06:44:08;;;;;;;;;;;;;;;-5.17;62.94;94075.78;5052725;28;19967;-64
2023/11/29 06:46:33;;;;;;;;;;;;;;;-5.65;64.80;94077.66;5042696;28;19955;-64
2023/11/29 06:48:58;;;;;;;;;;;;;;;-5.58;64.88;94072.81;5049517;28;19947;-65
2023/11/29 06:51:23;;;;;;;;;;;;;;;-5.46;64.60;94066.69;5051464;28;19928;-64
2023/11/29 06:53:49;;;;;;;;;;;;;;;-5.15;63.68;94081.69;5046797;28;19976;-65
2023/11/29 06:56:14;;;;;;;;;;;;;;;-4.91;62.38;94078.13;5047337;28;19921;-65
2023/11/29 06:58:39;;;;;;;;;;;;;;;-5.13;62.86;94063.41;5040039;28;20433;-65
2023/11/29 07:01:07;;;;;;;;;;;;;;;-4.53;61.14;94067.41;5041705;28;19921;-64
2023/11/29 07:03:32;;;;;;;;;;;;;;;-5.52;63.67;94061.16;5040232;28;19960;-65
2023/11/29 07:05:58;;;;;;;;;;;;;;;-4.76;63.08;94067.50;5042331;28;19921;-65
2023/11/29 07:08:23;;;;;;;;;;;;;;;-4.46;61.50;94063.38;5050116;28;20028;-64
2023/11/29 07:10:48;;;;;;;;;;;;;;;-4.71;62.17;94049.75;5039036;28;20624;-64
2023/11/29 07:13:13;;;;;;;;;;;;;;;-6.17;66.42;94065.06;5044723;28;19946;-64
2023/11/29 07:15:39;;;;;;;;;;;;;;;-5.00;64.16;94073.69;5042486;28;20069;-64
2023/11/29 07:18:04;;;;;;;;;;;;;;;-5.47;66.09;94082.41;5045692;28;19969;-65
2023/11/29 07:20:30;;;;;;;;;;;;;;;-5.11;63.00;94072.72;5039617;28;19970;-65
2023/11/29 07:22:55;;;;;;;;;;;;;;;-5.52;65.21;94069.78;5042931;28;20009;-65
2023/11/29 07:25:20;;;;;;;;;;;;;;;-4.25;61.67;94066.03;5045239;28;20441;-65
2023/11/29 07:27:45;;;;;;;;;;;;;;;-4.72;62.29;94048.13;5046087;28;20015;-65
2023/11/29 07:30:11;;;;;;;;;;;;;;;-4.25;61.70;94049.63;5051294;28;19931;-66
2023/11/29 07:32:36;;;;;;;;;;;;;;;-4.53;62.09;94054.41;5045076;28;19932;-65
2023/11/29 07:35:01;;;;;;;;;;;;;;;-4.56;63.40;94042.50;5050119;28;20314;-65
2023/11/29 07:37:27;;;;;;;;;;;;;;;-6.56;70.47;94056.66;5048370;28;19955;-65
2023/11/29 07:39:54;;;;;;;;;;;;;;;-4.49;63.78;94053.25;5054707;28;20459;-65
2023/11/29 07:42:19;;;;;;;;;;;;;;;-4.83;64.09;94054.97;5052709;28;19952;-64
2023/11/29 07:44:45;;;;;;;;;;;;;;;-5.02;63.50;94055.63;5050229;28;19924;-65
2023/11/29 07:47:10;;;;;;;;;;;;;;;-6.56;69.81;94054.09;5050882;28;20043;-65
2023/11/29 07:49:36;;;;;;;;;;;;;;;-4.78;65.09;94059.00;5047677;28;20095;-65
2023/11/29 07:52:02;;;;;;;;;;;;;;;-4.25;63.46;94050.44;5054430;28;19954;-65
2023/11/29 07:54:27;;;;;;;;;;;;;;;-4.81;63.31;94049.69;5053133;28;19955;-64
2023/11/29 07:56:52;;;;;;;;;;;;;;;-5.22;70.06;94051.97;5050722;28;19942;-64
2023/11/29 07:59:18;;;;;;;;;;;;;;;-5.18;67.67;94048.19;5052083;28;19928;-65
2023/11/29 08:01:43;;;;;;;;;;;;;;;-4.33;64.42;94039.84;5048123;28;20480;-64
2023/11/29 08:04:08;;;;;;;;;;;;;;;-5.07;65.93;94058.56;5067990;28;20109;-65
2023/11/29 08:06:34;;;;;;;;;;;;;;;-4.01;63.32;94048.56;5047915;28;19951;-65
2023/11/29 08:09:00;;;;;;;;;;;;;;;-4.57;62.83;94039.09;5049146;28;20540;-65
2023/11/29 08:11:25;;;;;;;;;;;;;;;-4.10;63.51;94034.53;5050422;28;20379;-65
2023/11/29 08:13:50;;;;;;;;;;;;;;;-4.62;65.73;94035.22;5050522;28;20203;-65
2023/11/29 08:16:16;;;;;;;;;;;;;;;-4.68;63.46;94047.75;5046822;28;19958;-65
2023/11/29 08:18:41;;;;;;;;;;;;;;;-3.95;63.56;94041.06;5043671;28;19963;-65
2023/11/29 08:21:06;;;;;;;;;;;;;;;-4.07;62.42;94044.69;5050098;28;19974;-65
2023/11/29 08:23:32;;;;;;;;;;;;;;;-3.46;61.21;94044.91;5064056;28;20674;-66
2023/11/29 08:25:57;;;;;;;;;;;;;;;-3.44;61.42;94061.19;5052286;28;19994;-65
2023/11/29 08:28:22;;;;;;;;;;;;;;;-3.67;62.19;94053.56;5051547;28;19962;-65
2023/11/29 08:30:48;;;;;;;;;;;;;;;-3.78;61.34;94057.88;5066538;28;20534;-66
2023/11/29 08:33:13;;;;;;;;;;;;;;;-4.37;63.87;94056.63;5052068;28;19929;-65
2023/11/29 08:35:38;;;;;;;;;;;;;;;-4.57;66.05;94062.50;5051019;28;19924;-67
2023/11/29 08:38:04;;;;;;;;;;;;;;;-4.30;64.07;94065.56;5049700;28;19997;-65
2023/11/29 08:40:29;;;;;;;;;;;;;;;-4.83;66.96;94057.59;5051392;28;19935;-65
2023/11/29 08:42:55;;;;;;;;;;;;;;;-5.24;68.43;94053.84;5047894;28;19962;-65
2023/11/29 08:45:20;;;;;;;;;;;;;;;-5.02;69.07;94041.81;5052140;28;20149;-65
2023/11/29 08:47:46;;;;;;;;;;;;;;;-4.78;67.01;94046.00;5048059;28;19961;-67
2023/11/29 08:50:11;;;;;;;;;;;;;;;-5.55;69.57;94051.84;5047814;28;20361;-66
2023/11/29 08:52:36;;;;;;;;;;;;;;;-5.23;69.48;94065.91;5045447;28;19924;-65
2023/11/29 08:55:02;;;;;;;;;;;;;;;-5.54;70.68;94063.06;5043923;28;19981;-65
2023/11/29 08:57:27;;;;;;;;;;;;;;;-4.87;69.28;94044.94;5052705;28;19941;-66
2023/11/29 08:59:52;;;;;;;;;;;;;;;-5.49;70.35;94053.16;5057430;28;20692;-66
2023/11/29 09:02:18;;;;;;;;;;;;;;;-6.22;73.78;94051.59;5053569;28;20039;-65
2023/11/29 09:04:43;;;;;;;;;;;;;;;-5.33;70.65;94047.63;5050054;28;20762;-66
2023/11/29 09:07:09;;;;;;;;;;;;;;;-5.80;72.59;94045.09;5055600;28;19962;-66
2023/11/29 09:09:34;;;;;;;;;;;;;;;-5.83;72.27;94055.69;5055041;28;19936;-64
2023/11/29 09:12:00;;;;;;;;;;;;;;;-5.95;73.67;94049.69;5054647;28;20381;-65
2023/11/29 09:14:26;;;;;;;;;;;;;;;-4.91;71.17;94038.34;5055599;28;19953;-66
2023/11/29 09:16:52;;;;;;;;;;;;;;;-5.36;71.38;94038.28;5048340;28;19968;-65
2023/11/29 09:19:17;;;;;;;;;;;;;;;-5.50;71.48;94041.13;5058231;28;19999;-65
2023/11/29 09:21:42;;;;;;;;;;;;;;;-5.66;72.91;94029.34;5051429;28;19952;-65
2023/11/29 09:24:07;;;;;;;;;;;;;;;-5.35;71.87;94039.13;5048731;28;20021;-66
2023/11/29 09:26:33;;;;;;;;;;;;;;;-5.23;71.02;94021.78;5044577;28;19963;-65
2023/11/29 09:28:58;;;;;;;;;;;;;;;-5.27;71.50;94028.16;5050096;28;20627;-66
2023/11/29 09:31:23;;;;;;;;;;;;;;;-5.08;71.09;94032.72;5049742;28;20046;-65
2023/11/29 09:33:48;;;;;;;;;;;;;;;-4.89;69.87;94021.69;5048692;28;20077;-65
2023/11/29 09:36:15;;;;;;;;;;;;;;;-4.86;69.75;94036.25;5052967;28;19931;-66
2023/11/29 09:38:41;;;;;;;;;;;;;;;-5.08;70.98;94054.31;5051690;28;19959;-65
2023/11/29 09:41:06;;;;;;;;;;;;;;;-5.63;72.52;94031.69;5054905;28;20698;-64
2023/11/29 09:43:32;;;;;;;;;;;;;;;-4.71;70.08;94034.19;5051636;28;20142;-64
2023/11/29 09:45:58;;;;;;;;;;;;;;;-4.80;69.97;94024.53;5054875;28;21054;-65
2023/11/29 09:48:23;;;;;;;;;;;;;;;-4.64;68.85;94030.16;5050945;28;19928;-64
2023/11/29 09:50:48;;;;;;;;;;;;;;;-4.66;68.69;94041.63;5054189;28;19951;-65
2023/11/29 09:53:14;;;;;;;;;;;;;;;-5.03;72.27;94032.38;5054200;28;19924;-65
2023/11/29 09:55:39;;;;;;;;;;;;;;;-5.65;77.45;94030.16;5053759;28;19961;-64
2023/11/29 09:58:04;;;;;;;;;;;;;;;-5.52;76.89;94048.19;5052929;28;19921;-64
2023/11/29 10:00:30;;;;;;;;;;;;;;;-5.33;75.99;94027.66;5053310;28;20616;-64
2023/11/29 10:02:55;;;;;;;;;;;;;;;-5.36;77.00;94027.09;5053754;28;19954;-64
2023/11/29 10:05:21;;;;;;;;;;;;;;;-5.28;76.72;94026.50;5054985;28;19960;-65
2023/11/29 10:07:46;;;;;;;;;;;;;;;-5.48;76.18;94034.88;5052923;28;19950;-64
2023/11/29 10:10:12;;;;;;;;;;;;;;;-5.53;75.65;94028.41;5056151;28;19985;-65
2023/11/29 10:12:42;;;;;;;;;;;;;;;-5.25;78.12;94021.06;5043139;28;19935;-64
2023/11/29 10:15:07;;;;;;;;;;;;;;;-5.36;78.13;94019.31;5049629;28;20737;-64
2023/11/29 10:17:33;;;;;;;;;;;;;;;-5.73;79.17;94017.78;5048976;28;19950;-65
2023/11/29 10:19:58;;;;;;;;;;;;;;;-5.67;79.02;94032.88;5054253;28;20014;-65
2023/11/29 10:22:23;;;;;;;;;;;;;;;-5.57;78.57;94027.81;5047279;28;20511;-64
2023/11/29 10:24:49;;;;;;;;;;;;;;;-5.75;81.06;94025.66;5049585;28;19954;-64
2023/11/29 10:27:18;;;;;;;;;;;;;;;-5.52;78.80;94030.88;5053142;28;20568;-64
2023/11/29 10:29:44;;;;;;;;;;;;;;;-5.15;76.64;94029.78;5051844;28;19951;-65
2023/11/29 10:32:09;;;;;;;;;;;;;;;-5.18;76.69;94032.63;5054401;28;19966;-64
2023/11/29 10:34:35;;;;;;;;;;;;;;;-5.36;76.49;94020.13;5051726;28;20589;-64
2023/11/29 10:37:01;;;;;;;;;;;;;;;-5.11;77.02;94019.97;5049491;28;19939;-64
2023/11/29 10:39:28;;;;;;;;;;;;;;;-5.20;77.38;94035.34;5065852;28;19965;-64
2023/11/29 10:41:56;;;;;;;;;;;;;;;-4.89;77.30;94026.09;5074911;28;20023;-64
2023/11/29 10:44:23;;;;;;;;;;;;;;;-5.05;73.40;94029.06;5072360;28;19951;-64
2023/11/29 10:46:48;;;;;;;;;;;;;;;-4.66;72.53;94026.03;5066206;27;20410;-64
2023/11/29 10:49:19;;;;;;;;;;;;;;;-4.35;73.54;94029.56;5054254;28;19968;-64
2023/11/29 10:51:45;;;;;;;;;;;;;;;-4.28;71.81;94019.47;5070499;28;19960;-64
2023/11/29 10:54:10;;;;;;;;;;;;;;;-4.92;75.01;94037.53;5070534;28;20533;-66
2023/11/29 10:56:36;;;;;;;;;;;;;;;-4.51;70.82;94029.16;5064523;28;19936;-65
2023/11/29 10:59:20;;;;;;;;;;;;;;;-4.33;70.94;94032.03;5072524;28;20097;-65
2023/11/29 11:01:45;;;;;;;;;;;;;;;-4.06;71.79;94026.38;5074260;28;20032;-66
2023/11/29 11:04:10;;;;;;;;;;;;;;;-4.52;74.37;94024.91;5073286;28;20070;-65
2023/11/29 11:06:37;;;;;;;;;;;;;;;-4.63;71.55;94021.41;5074070;28;19961;-66
2023/11/29 11:09:03;;;;;;;;;;;;;;;-4.30;72.61;94031.78;5072187;28;19958;-65
2023/11/29 11:11:44;;;;;;;;;;;;;;;-4.49;72.16;94035.88;5073711;28;20368;-64
2023/11/29 11:14:22;;;;;;;;;;;;;;;-3.87;70.45;94022.22;5074310;28;19940;-66
2023/11/29 11:16:57;;;;;;;;;;;;;;;-4.39;70.75;94019.56;5071077;28;19928;-65
2023/11/29 11:19:29;;;;;;;;;;;;;;;-4.09;72.34;94013.59;5073813;28;20397;-65
2023/11/29 11:21:54;;;;;;;;;;;;;;;-3.96;72.38;94013.44;5073236;28;19950;-65
2023/11/29 11:24:19;;;;;;;;;;;;;;;-3.80;71.79;94015.56;5070201;28;19954;-66
2023/11/29 11:27:03;;;;;;;;;;;;;;;-4.39;72.70;94012.56;5066635;28;19968;-64
2023/11/29 11:29:30;;;;;;;;;;;;;;;-3.74;71.62;94010.81;5072495;28;20011;-65
2023/11/29 11:31:56;;;;;;;;;;;;;;;-3.61;70.08;94010.56;5074032;28;20068;-65
2023/11/29 11:34:21;;;;;;;;;;;;;;;-3.86;69.51;94013.47;5071371;28;20382;-64
2023/11/29 11:36:46;;;;;;;;;;;;;;;-3.84;72.19;94014.16;5069262;28;19931;-65
2023/11/29 11:39:11;;;;;;;;;;;;;;;-4.23;72.90;94012.16;5059593;28;19935;-65
2023/11/29 11:41:37;;;;;;;;;;;;;;;-4.12;71.04;94008.66;5067433;28;19936;-65
2023/11/29 11:44:02;;;;;;;;;;;;;;;-4.17;71.10;94003.03;5064967;28;19955;-67
2023/11/29 11:46:27;;;;;;;;;;;;;;;-3.43;70.68;94003.00;5072909;28;20352;-65
2023/11/29 11:48:52;;;;;;;;;;;;;;;-3.76;71.72;94013.53;5069780;28;19928;-65
2023/11/29 11:51:21;;;;;;;;;;;;;;;-3.64;69.62;94014.25;5065036;28;20420;-65
2023/11/29 11:53:46;;;;;;;;;;;;;;;-3.91;70.01;94013.84;5066001;28;19935;-66
2023/11/29 11:56:18;;;;;;;;;;;;;;;-3.73;71.70;94012.44;5073792;28;19960;-65
2023/11/29 11:58:43;;;;;;;;;;;;;;;-4.27;72.30;94021.16;5071806;28;20047;-66
2023/11/29 12:01:09;;;;;;;;;;;;;;;-3.64;72.26;94023.88;5072317;28;20105;-64
2023/11/29 12:03:35;;;;;;;;;;;;;;;-5.04;75.56;94018.56;5073542;28;20355;-65
2023/11/29 12:06:04;;;;;;;;;;;;;;;-4.90;75.28;94020.06;5072094;28;19963;-65
2023/11/29 12:08:29;;;;;;;;;;;;;;;-5.65;78.53;94020.59;5071595;28;20561;-64
2023/11/29 12:10:54;;;;;;;;;;;;;;;-4.90;76.34;94020.06;5064890;28;19968;-65
2023/11/29 12:13:21;;;;;;;;;;;;;;;-4.86;75.69;94016.28;5068741;28;19941;-65
2023/11/29 12:15:46;;;;;;;;;;;;;;;-4.64;74.88;94018.94;5071962;28;20373;-64
2023/11/29 12:18:14;;;;;;;;;;;;;;;-4.61;74.32;94022.13;5072423;28;20226;-64
2023/11/29 12:20:39;;;;;;;;;;;;;;;-4.64;74.23;94022.34;5071925;28;19983;-64
2023/11/29 12:23:05;;;;;;;;;;;;;;;-4.86;76.23;94023.25;5069274;28;20939;-65
2023/11/29 12:25:30;;;;;;;;;;;;;;;-4.51;72.93;94023.97;5070102;28;19952;-65
2023/11/29 12:27:55;;;;;;;;;;;;;;;-4.54;74.78;94037.19;5070101;28;20061;-64
2023/11/29 12:30:21;;;;;;;;;;;;;;;-4.30;75.82;94021.41;5068161;28;19952;-64
2023/11/29 12:32:46;;;;;;;;;;;;;;;-4.28;75.07;94026.47;5073061;28;19964;-65
2023/11/29 12:35:15;;;;;;;;;;;;;;;-4.44;75.37;94028.53;5070253;28;20157;-64
2023/11/29 12:37:45;;;;;;;;;;;;;;;-4.41;73.71;94026.63;5070815;28;19932;-65
2023/11/29 12:40:11;;;;;;;;;;;;;;;-4.87;79.44;94029.38;5071119;28;19958;-64